TimeMST,TemperatureF,Dew PointF,Humidity,Sea Level PressureIn,VisibilityMPH,Wind Direction,Wind SpeedMPH,Gust SpeedMPH,PrecipitationIn,Events,Conditions,WindDirDegrees,DateUTC
12:53 AM,28.0,6.1,39,30.37,10.0,Calm,Calm,-,N/A,,Clear,0,2013-01-16 07:53:00
1:53 AM,28.0,3.0,34,30.36,10.0,WNW,3.5,-,N/A,,Clear,300,2013-01-16 08:53:00
2:53 AM,27.0,3.9,37,30.36,10.0,SE,5.8,-,N/A,,Clear,130,2013-01-16 09:53:00
3:53 AM,26.1,5.0,41,30.35,10.0,Calm,Calm,-,N/A,,Clear,0,2013-01-16 10:53:00
4:53 AM,25.0,6.1,45,30.34,10.0,Calm,Calm,-,N/A,,Clear,0,2013-01-16 11:53:00
5:53 AM,26.1,7.0,44,30.33,10.0,Calm,Calm,-,N/A,,Clear,0,2013-01-16 12:53:00
6:53 AM,25.0,8.1,49,30.35,10.0,NNW,4.6,-,N/A,,Clear,340,2013-01-16 13:53:00
7:53 AM,27.0,9.0,47,30.35,10.0,NE,4.6,-,N/A,,Clear,50,2013-01-16 14:53:00
8:53 AM,39.9,1.0,20,30.34,10.0,SE,12.7,-,N/A,,Clear,140,2013-01-16 15:53:00
9:53 AM,43.0,6.1,22,30.36,10.0,North,-9999.0,-,N/A,,Clear,0,2013-01-16 16:53:00
10:53 AM,50.0,-0.9,12,30.32,10.0,ESE,20.7,26.5,N/A,,Clear,120,2013-01-16 17:53:00
11:53 AM,54.0,-0.0,11,30.28,10.0,East,13.8,-,N/A,,Clear,90,2013-01-16 18:53:00
12:53 PM,57.0,1.9,11,30.24,10.0,NE,5.8,-,N/A,,Clear,50,2013-01-16 19:53:00
1:53 PM,57.9,3.9,11,30.21,10.0,North,9.2,-,N/A,,Clear,10,2013-01-16 20:53:00
2:53 PM,57.9,3.9,11,30.20,10.0,North,11.5,-,N/A,,Clear,350,2013-01-16 21:53:00
3:53 PM,59.0,5.0,12,30.19,10.0,NNE,9.2,-,N/A,,Clear,20,2013-01-16 22:53:00
4:53 PM,57.9,6.1,13,30.20,10.0,North,6.9,-,N/A,,Clear,10,2013-01-16 23:53:00
5:53 PM,53.1,9.0,17,30.22,10.0,North,3.5,-,N/A,,Clear,10,2013-01-17 00:53:00
6:53 PM,50.0,10.0,20,30.23,10.0,Calm,Calm,-,N/A,,Clear,0,2013-01-17 01:53:00
7:53 PM,43.0,12.0,28,30.26,10.0,Calm,Calm,-,N/A,,Clear,0,2013-01-17 02:53:00
8:53 PM,43.0,10.9,27,30.23,10.0,Calm,Calm,-,N/A,,Clear,0,2013-01-17 03:53:00
9:53 PM,39.0,10.9,32,30.24,10.0,SW,3.5,-,N/A,,Clear,220,2013-01-17 04:53:00
10:53 PM,42.1,12.9,31,30.22,10.0,Calm,Calm,-,N/A,,Clear,0,2013-01-17 05:53:00
11:53 PM,44.1,9.0,24,30.19,10.0,East,6.9,-,N/A,,Clear,100,2013-01-17 06:53:00